createdAt,value
2018-02-03T00:01:01.805Z,8.20
2018-02-03T00:03:32.049Z,42.83
2018-02-03T00:06:00.307Z,35.70
2018-02-03T00:08:29.730Z,43.70
2018-02-03T00:10:58.003Z,38.47
2018-02-03T00:13:26.275Z,48.53
2018-02-03T00:15:55.562Z,34.70
2018-02-03T00:18:23.824Z,36.63
2018-02-03T00:20:52.087Z,37.10
2018-02-03T00:23:20.513Z,35.03
2018-02-03T00:25:48.773Z,38.80
2018-02-03T00:28:22.619Z,43.13
2018-02-03T00:30:50.896Z,43.93
2018-02-03T00:33:19.148Z,34.03
2018-02-03T00:35:47.587Z,45.10
2018-02-03T00:38:15.871Z,41.03
2018-02-03T00:40:45.651Z,32.83
2018-02-03T00:43:14.236Z,47.57
2018-02-03T00:45:42.500Z,26.07
2018-02-03T00:48:10.770Z,12.87
2018-02-03T00:50:39.354Z,30.83
2018-02-03T00:53:08.656Z,41.77
2018-02-03T00:55:36.921Z,38.80
2018-02-03T00:58:05.218Z,36.43
2018-02-03T01:00:33.481Z,34.63
2018-02-03T01:03:01.740Z,43.17
2018-02-03T01:05:31.588Z,42.13
2018-02-03T01:08:00.608Z,39.13
2018-02-03T01:10:28.876Z,24.40
2018-02-03T01:12:57.326Z,36.33
2018-02-03T01:15:25.590Z,26.40
2018-02-03T01:17:55.530Z,36.37
2018-02-03T01:20:23.846Z,55.87
2018-02-03T01:22:52.878Z,37.77
2018-02-03T01:25:21.132Z,49.87
2018-02-03T01:27:49.424Z,44.03
2018-02-03T01:30:18.568Z,47.03
2018-02-03T01:32:47.582Z,32.27
2018-02-03T01:35:16.699Z,26.37
2018-02-03T01:37:45.724Z,42.47
2018-02-03T01:40:13.988Z,51.47
2018-02-03T01:42:46.012Z,42.30
2018-02-03T01:45:15.052Z,32.23
2018-02-03T01:47:53.307Z,39.50
2018-02-03T01:50:21.582Z,51.27
2018-02-03T01:52:52.066Z,33.57
2018-02-03T01:55:20.642Z,43.40
2018-02-03T01:57:48.910Z,39.87
2018-02-03T02:00:17.183Z,41.17
2018-02-03T02:02:45.480Z,43.77
2018-02-03T02:05:16.240Z,45.53
2018-02-03T02:07:44.500Z,59.53
2018-02-03T02:10:12.873Z,37.93
2018-02-03T02:12:41.135Z,42.07
2018-02-03T02:15:09.387Z,38.47
2018-02-03T02:17:38.598Z,37.13
2018-02-03T02:20:06.884Z,41.13
2018-02-03T02:22:35.151Z,44.63
2018-02-03T02:25:03.447Z,39.27
2018-02-03T02:27:31.733Z,55.40
2018-02-03T02:30:05.308Z,46.93
2018-02-03T02:32:34.694Z,45.67
2018-02-03T02:35:03.734Z,43.17
2018-02-03T02:37:32.216Z,46.47
2018-02-03T02:40:00.466Z,45.30
2018-02-03T02:42:29.472Z,45.37
2018-02-03T02:44:57.748Z,44.57
2018-02-03T02:47:26.043Z,45.97
2018-02-03T02:49:54.305Z,44.13
2018-02-03T02:52:24.155Z,38.83
2018-02-03T02:54:55.963Z,38.27
2018-02-03T02:57:24.219Z,40.07
2018-02-03T02:59:52.526Z,52.30
2018-02-03T03:02:20.797Z,46.57
2018-02-03T03:04:49.057Z,51.37
2018-02-03T03:07:17.633Z,42.53
2018-02-03T03:09:45.892Z,52.50
2018-02-03T03:12:14.921Z,51.63
2018-02-03T03:14:43.676Z,48.90
2018-02-03T03:17:12.776Z,47.33
2018-02-03T03:19:43.777Z,49.10
2018-02-03T03:22:12.272Z,48.10
2018-02-03T03:24:40.527Z,46.07
2018-02-03T03:27:08.779Z,56.57
2018-02-03T03:29:37.118Z,53.60
2018-02-03T03:32:07.633Z,42.37
2018-02-03T03:34:37.558Z,59.10
2018-02-03T03:37:07.398Z,58.07
2018-02-03T03:39:35.706Z,50.77
2018-02-03T03:42:04.729Z,45.00
2018-02-03T03:44:35.144Z,49.53
2018-02-03T03:47:03.422Z,49.87
2018-02-03T03:49:31.679Z,51.87
2018-02-03T03:52:00.118Z,47.33
2018-02-03T03:54:28.382Z,48.67
2018-02-03T03:56:58.921Z,48.93
2018-02-03T03:59:27.994Z,45.23
2018-02-03T04:01:56.249Z,41.50
2018-02-03T04:04:24.509Z,15.00
2018-02-03T04:06:52.809Z,38.77
2018-02-03T04:09:22.597Z,53.00
2018-02-03T04:11:50.845Z,25.80
2018-02-03T04:14:19.587Z,46.33
2018-02-03T04:16:47.837Z,36.50
2018-02-03T04:19:16.095Z,36.97
2018-02-03T04:21:46.683Z,25.50
2018-02-03T04:24:15.721Z,25.30
2018-02-03T04:26:43.994Z,30.00
2018-02-03T04:29:12.295Z,29.63
2018-02-03T04:31:41.341Z,25.20
2018-02-03T04:34:10.855Z,21.37
2018-02-03T04:36:40.006Z,30.17
2018-02-03T04:39:08.277Z,29.67
2018-02-03T04:41:36.552Z,20.67
2018-02-03T04:44:04.859Z,24.03
2018-02-03T04:46:35.434Z,19.73
2018-02-03T04:49:03.705Z,19.10
2018-02-03T04:51:32.186Z,16.17
2018-02-03T04:54:00.438Z,11.37
2018-02-03T04:56:30.354Z,6.33
2018-02-03T04:58:58.834Z,14.53
2018-02-03T05:01:27.103Z,14.93
2018-02-03T05:03:56.129Z,13.07
2018-02-03T05:06:24.441Z,13.10
2018-02-03T05:08:52.704Z,18.50
2018-02-03T05:11:22.512Z,11.07
2018-02-03T05:13:50.896Z,11.77
2018-02-03T05:16:19.919Z,14.93
2018-02-03T05:18:48.952Z,13.20
2018-02-03T05:21:17.337Z,12.67
2018-02-03T05:23:46.348Z,14.47
2018-02-03T05:26:14.605Z,10.47
2018-02-03T05:28:43.437Z,10.43
2018-02-03T05:31:11.696Z,16.03
2018-02-03T05:33:39.945Z,11.20
2018-02-03T05:36:09.124Z,10.10
2018-02-03T05:38:37.609Z,10.30
2018-02-03T05:41:05.901Z,8.63
2018-02-03T05:43:34.220Z,13.63
2018-02-03T05:46:02.532Z,12.63
2018-02-03T05:48:33.299Z,9.60
2018-02-03T05:51:02.054Z,12.10
2018-02-03T05:53:31.062Z,13.07
2018-02-03T05:55:59.315Z,14.90
2018-02-03T05:58:28.364Z,9.50
2018-02-03T06:00:56.661Z,11.17
2018-02-03T06:03:24.902Z,8.37
2018-02-03T06:05:53.197Z,13.60
2018-02-03T06:08:21.463Z,21.00
2018-02-03T06:10:49.705Z,9.10
2018-02-03T06:13:18.321Z,25.63
2018-02-03T06:15:46.579Z,10.47
2018-02-03T06:18:14.825Z,7.40
2018-02-03T06:20:44.037Z,12.97
2018-02-03T06:23:12.348Z,6.87
2018-02-03T06:25:40.604Z,16.10
2018-02-03T06:28:09.041Z,14.57
2018-02-03T06:30:37.294Z,14.70
2018-02-03T06:33:05.546Z,6.73
2018-02-03T06:35:33.949Z,10.83
2018-02-03T06:38:04.917Z,7.93
2018-02-03T06:40:35.664Z,8.37
2018-02-03T06:43:04.685Z,12.03
2018-02-03T06:45:32.932Z,8.03
2018-02-03T06:48:01.999Z,13.63
2018-02-03T06:50:31.778Z,13.93
2018-02-03T06:53:00.057Z,10.10
2018-02-03T06:55:28.368Z,8.10
2018-02-03T06:57:57.278Z,9.50
2018-02-03T07:00:26.328Z,6.27
2018-02-03T07:02:56.527Z,5.23
2018-02-03T07:05:24.766Z,6.50
2018-02-03T07:07:53.787Z,8.90
2018-02-03T07:10:22.082Z,10.57
2018-02-03T07:12:50.399Z,8.60
2018-02-03T07:15:21.677Z,8.90
2018-02-03T07:17:50.058Z,13.67
2018-02-03T07:20:18.316Z,9.70
2018-02-03T07:22:47.331Z,12.23
2018-02-03T07:25:15.763Z,9.00
2018-02-03T07:27:45.818Z,14.37
2018-02-03T07:30:14.075Z,7.70
2018-02-03T07:32:42.558Z,10.60
2018-02-03T07:35:10.820Z,8.20
2018-02-03T07:37:39.186Z,10.23
2018-02-03T07:40:09.789Z,4.50
2018-02-03T07:42:39.618Z,7.60
2018-02-03T07:45:07.889Z,10.50
2018-02-03T07:47:36.173Z,10.30
2018-02-03T07:50:04.452Z,11.30
2018-02-03T07:52:34.442Z,10.43
2018-02-03T07:55:02.863Z,9.90
2018-02-03T07:57:31.123Z,18.13
2018-02-03T07:59:59.390Z,10.43
2018-02-03T08:02:28.197Z,14.87
2018-02-03T08:04:57.989Z,15.00
2018-02-03T08:07:27.034Z,13.23
2018-02-03T08:09:56.392Z,16.90
2018-02-03T08:12:24.653Z,18.80
2018-02-03T08:14:52.929Z,26.43
2018-02-03T08:17:22.919Z,9.00
2018-02-03T08:19:51.940Z,14.23
2018-02-03T08:22:20.223Z,22.97
2018-02-03T08:24:48.527Z,9.87
2018-02-03T08:27:16.783Z,13.47
2018-02-03T08:29:45.038Z,12.10
2018-02-03T08:32:13.355Z,14.17
2018-02-03T08:34:41.615Z,7.20
2018-02-03T08:37:09.865Z,10.90
2018-02-03T08:39:38.211Z,15.03
2018-02-03T08:42:08.787Z,11.90
2018-02-03T08:44:37.273Z,11.00
2018-02-03T08:47:05.566Z,10.00
2018-02-03T08:49:33.822Z,13.53
2018-02-03T08:52:02.089Z,11.37
2018-02-03T08:54:31.410Z,15.27
2018-02-03T08:56:59.682Z,10.97
2018-02-03T08:59:27.952Z,6.50
2018-02-03T09:01:56.617Z,12.33
2018-02-03T09:04:28.498Z,12.33
2018-02-03T09:06:56.752Z,8.60
2018-02-03T09:09:25.052Z,7.63
2018-02-03T09:12:04.179Z,8.97
2018-02-03T09:14:33.220Z,4.17
2018-02-03T09:17:02.243Z,15.20
2018-02-03T09:19:30.504Z,9.70
2018-02-03T09:21:58.801Z,7.63
2018-02-03T09:24:27.097Z,11.77
2018-02-03T09:26:56.122Z,4.43
2018-02-03T09:29:27.747Z,8.10
2018-02-03T09:31:56.022Z,14.07
2018-02-03T09:34:24.280Z,6.03
2018-02-03T09:36:52.557Z,8.40
2018-02-03T09:39:22.278Z,8.47
2018-02-03T09:41:51.286Z,12.40
2018-02-03T09:44:19.684Z,6.20
2018-02-03T09:46:49.728Z,6.70
2018-02-03T09:49:18.743Z,10.33
2018-02-03T09:51:48.142Z,4.90
2018-02-03T09:54:16.396Z,4.73
2018-02-03T09:56:45.511Z,8.20
2018-02-03T09:59:14.705Z,8.00
2018-02-03T10:01:43.073Z,11.20
2018-02-03T10:04:11.291Z,4.50
2018-02-03T10:06:40.020Z,12.60
2018-02-03T10:09:09.051Z,11.40
2018-02-03T10:11:37.313Z,9.37
2018-02-03T10:14:05.601Z,11.13
2018-02-03T10:16:35.321Z,7.43
2018-02-03T10:19:03.576Z,18.93
2018-02-03T10:21:31.861Z,10.83
2018-02-03T10:24:00.125Z,11.93
2018-02-03T10:26:28.384Z,12.47
2018-02-03T10:28:57.433Z,9.63
2018-02-03T10:31:26.900Z,13.60
2018-02-03T10:33:55.168Z,12.10
2018-02-03T10:36:24.284Z,15.77
2018-02-03T10:38:52.556Z,11.60
2018-02-03T10:41:20.852Z,12.03
2018-02-03T10:43:49.648Z,8.87
2018-02-03T10:46:17.926Z,6.80
2018-02-03T10:48:46.565Z,4.03
2018-02-03T10:51:15.624Z,8.00
2018-02-03T10:53:44.607Z,15.00
2018-02-03T10:56:13.497Z,7.80
2018-02-03T10:58:41.898Z,12.60
2018-02-03T11:01:11.962Z,8.23
2018-02-03T11:03:41.081Z,9.67
2018-02-03T11:06:10.938Z,4.20
2018-02-03T11:08:39.989Z,4.67
2018-02-03T11:11:08.236Z,9.57
2018-02-03T11:13:36.717Z,4.90
2018-02-03T11:16:04.965Z,10.17
2018-02-03T11:18:34.003Z,5.93
2018-02-03T11:21:03.960Z,8.70
2018-02-03T11:23:32.249Z,15.40
2018-02-03T11:26:01.296Z,5.00
2018-02-03T11:28:30.236Z,7.00
2018-02-03T11:31:00.734Z,13.13
2018-02-03T11:33:30.228Z,15.03
2018-02-03T11:35:58.821Z,5.70
2018-02-03T11:38:27.084Z,8.83
2018-02-03T11:40:55.347Z,8.30
2018-02-03T11:43:23.750Z,5.13
2018-02-03T11:45:52.004Z,6.77
2018-02-03T11:48:20.254Z,9.90
2018-02-03T11:50:50.733Z,16.10
2018-02-03T11:53:18.982Z,3.00
2018-02-03T11:55:48.019Z,4.10
2018-02-03T11:58:18.705Z,3.27
2018-02-03T12:00:47.000Z,7.23
2018-02-03T12:03:15.272Z,4.77
2018-02-03T12:05:43.683Z,3.50
2018-02-03T12:08:11.934Z,6.83
2018-02-03T12:10:40.513Z,9.63
2018-02-03T12:13:09.316Z,11.70
2018-02-03T12:15:37.569Z,4.90
2018-02-03T12:18:05.833Z,4.20
2018-02-03T12:20:36.430Z,6.10
2018-02-03T12:23:05.481Z,3.97
2018-02-03T12:25:34.639Z,3.80
2018-02-03T12:28:03.999Z,5.77
2018-02-03T12:30:32.280Z,4.20
2018-02-03T12:33:00.577Z,4.43
2018-02-03T12:35:29.171Z,4.83
2018-02-03T12:37:58.213Z,8.37
2018-02-03T12:40:26.477Z,6.10
2018-02-03T12:42:54.784Z,4.83
2018-02-03T12:45:23.067Z,5.97
2018-02-03T12:47:52.215Z,6.87
2018-02-03T12:50:20.628Z,3.73
2018-02-03T12:52:49.395Z,2.60
2018-02-03T12:55:17.638Z,3.83
2018-02-03T12:57:46.022Z,11.53
2018-02-03T13:00:15.794Z,5.80
2018-02-03T13:02:44.056Z,5.27
2018-02-03T13:05:12.340Z,6.43
2018-02-03T13:07:40.597Z,5.13
2018-02-03T13:10:08.868Z,7.90
2018-02-03T13:12:39.194Z,11.23
2018-02-03T13:15:07.437Z,10.40
2018-02-03T13:17:35.692Z,7.60
2018-02-03T13:20:04.762Z,10.90
2018-02-03T13:22:35.329Z,7.30
2018-02-03T13:25:05.402Z,15.63
2018-02-03T13:27:34.334Z,6.73
2018-02-03T13:30:03.358Z,9.97
2018-02-03T13:32:32.125Z,8.63
2018-02-03T13:35:00.436Z,5.63
2018-02-03T13:37:29.924Z,9.63
2018-02-03T13:39:58.443Z,3.70
2018-02-03T13:42:26.695Z,6.57
2018-02-03T13:44:54.936Z,6.20
2018-02-03T13:47:23.243Z,3.87
2018-02-03T13:49:51.496Z,7.10
2018-02-03T13:52:20.514Z,6.40
2018-02-03T13:54:50.459Z,7.73
2018-02-03T13:57:19.758Z,7.30
2018-02-03T13:59:48.748Z,9.20
2018-02-03T14:02:18.740Z,6.40
2018-02-03T14:04:46.989Z,8.00
2018-02-03T14:07:15.249Z,7.43
2018-02-03T14:09:44.302Z,7.77
2018-02-03T14:12:12.569Z,7.57
2018-02-03T14:14:42.865Z,5.07
2018-02-03T14:17:11.169Z,2.80
2018-02-03T14:19:39.438Z,5.20
2018-02-03T14:22:07.756Z,12.30
2018-02-03T14:24:43.912Z,4.93
2018-02-03T14:27:13.680Z,4.90
2018-02-03T14:29:41.945Z,8.03
2018-02-03T14:32:10.268Z,3.17
2018-02-03T14:34:38.520Z,11.83
2018-02-03T14:37:06.772Z,2.50
2018-02-03T14:39:35.588Z,1.77
2018-02-03T14:42:03.899Z,1.57
2018-02-03T14:44:32.197Z,2.00
2018-02-03T14:47:01.458Z,3.40
2018-02-03T14:49:29.710Z,1.57
2018-02-03T14:51:57.971Z,2.50
2018-02-03T14:54:26.384Z,4.40
2018-02-03T14:56:55.124Z,4.20
2018-02-03T14:59:23.373Z,1.20
2018-02-03T15:01:51.841Z,2.23
2018-02-03T15:04:20.875Z,2.70
2018-02-03T15:06:49.186Z,1.33
2018-02-03T15:09:17.900Z,2.53
2018-02-03T15:11:46.166Z,4.63
2018-02-03T15:14:14.432Z,1.47
2018-02-03T15:16:43.519Z,5.20
2018-02-03T15:19:11.821Z,6.63
2018-02-03T15:21:40.173Z,2.40
2018-02-03T15:24:10.909Z,5.13
2018-02-03T15:26:39.178Z,2.00
2018-02-03T15:29:07.446Z,3.90
2018-02-03T15:31:35.950Z,1.57
2018-02-03T15:34:04.215Z,5.13
2018-02-03T15:36:33.351Z,2.67
2018-02-03T15:39:01.635Z,5.57
2018-02-03T15:41:32.699Z,3.60
2018-02-03T15:44:01.036Z,4.10
2018-02-03T15:46:29.388Z,1.43
2018-02-03T15:48:57.637Z,2.23
2018-02-03T15:51:25.908Z,6.73
2018-02-03T15:53:55.076Z,10.40
2018-02-03T15:56:23.351Z,1.43
2018-02-03T15:58:52.064Z,4.73
2018-02-03T16:01:21.323Z,11.23
2018-02-03T16:03:49.594Z,3.83
2018-02-03T16:06:19.362Z,4.53
2018-02-03T16:08:47.790Z,4.10
2018-02-03T16:11:16.039Z,5.00
2018-02-03T16:13:44.316Z,5.00
2018-02-03T16:16:12.805Z,4.50
2018-02-03T16:18:42.790Z,4.23
2018-02-03T16:21:11.089Z,4.60
2018-02-03T16:23:39.584Z,6.83
2018-02-03T16:26:10.131Z,7.70
2018-02-03T16:28:38.405Z,5.77
2018-02-03T16:31:06.876Z,5.80
2018-02-03T16:33:35.153Z,2.70
2018-02-03T16:36:03.395Z,9.33
2018-02-03T16:38:31.836Z,7.20
2018-02-03T16:41:00.866Z,7.00
2018-02-03T16:43:33.451Z,6.13
2018-02-03T16:46:01.724Z,9.97
2018-02-03T16:48:29.995Z,7.53
2018-02-03T16:50:58.280Z,6.80
2018-02-03T16:53:26.530Z,4.43
2018-02-03T16:55:54.990Z,6.10
2018-02-03T16:58:23.336Z,5.43
2018-02-03T17:00:52.125Z,11.40
2018-02-03T17:03:20.436Z,10.57
2018-02-03T17:05:51.661Z,6.20
2018-02-03T17:08:21.418Z,5.73
2018-02-03T17:10:49.695Z,6.93
2018-02-03T17:13:18.212Z,5.70
2018-02-03T17:15:47.295Z,9.17
2018-02-03T17:18:15.608Z,17.07
2018-02-03T17:20:45.819Z,11.33
2018-02-03T17:23:14.099Z,10.43
2018-02-03T17:25:42.353Z,7.93
2018-02-03T17:28:12.030Z,8.23
2018-02-03T17:30:40.293Z,8.80
2018-02-03T17:33:10.106Z,14.77
2018-02-03T17:35:38.406Z,12.97
2018-02-03T17:38:12.400Z,14.50
2018-02-03T17:40:42.200Z,14.10
2018-02-03T17:43:11.241Z,20.20
2018-02-03T17:45:48.667Z,22.40
2018-02-03T17:48:17.719Z,15.93
2018-02-03T17:50:46.780Z,23.00
2018-02-03T17:53:17.489Z,23.67
2018-02-03T17:55:51.328Z,19.97
2018-02-03T17:58:19.974Z,17.90
2018-02-03T18:00:48.278Z,20.20
2018-02-03T18:03:18.589Z,23.77
2018-02-03T18:05:47.648Z,17.87
2018-02-03T18:08:15.903Z,20.10
2018-02-03T18:10:44.154Z,24.57
2018-02-03T18:13:12.499Z,16.80
2018-02-03T18:15:42.279Z,8.90
2018-02-03T18:18:10.535Z,7.27
2018-02-03T18:20:39.111Z,16.03
2018-02-03T18:23:07.423Z,10.77
2018-02-03T18:25:35.673Z,15.80
2018-02-03T18:28:05.301Z,11.37
2018-02-03T18:30:33.557Z,20.30
2018-02-03T18:33:01.817Z,13.30
2018-02-03T18:35:30.233Z,15.67
2018-02-03T18:37:58.509Z,18.63
2018-02-03T18:40:29.013Z,13.47
2018-02-03T18:42:57.468Z,18.20
2018-02-03T18:45:38.333Z,23.90
2018-02-03T18:48:07.611Z,21.67
2018-02-03T18:50:36.975Z,21.90
2018-02-03T18:53:05.229Z,9.53
2018-02-03T18:55:33.617Z,13.63
2018-02-03T18:58:01.874Z,11.87
2018-02-03T19:00:31.767Z,18.53
2018-02-03T19:03:00.064Z,13.90
2018-02-03T19:05:30.188Z,17.20
2018-02-03T19:07:58.455Z,18.17
2018-02-03T19:10:27.511Z,23.67
2018-02-03T19:12:55.799Z,15.63
2018-02-03T19:15:26.813Z,17.30
2018-02-03T19:17:55.122Z,22.30
2018-02-03T19:20:23.374Z,16.03
2018-02-03T19:22:51.640Z,19.97
2018-02-03T19:25:19.929Z,15.70
2018-02-03T19:27:48.974Z,25.70
2018-02-03T19:30:17.229Z,27.07
2018-02-03T19:32:47.104Z,17.80
2018-02-03T19:35:15.378Z,15.33
2018-02-03T19:37:43.623Z,20.70
2018-02-03T19:40:12.550Z,29.63
2018-02-03T19:42:40.816Z,16.17
2018-02-03T19:45:09.189Z,18.53
2018-02-03T19:47:37.586Z,11.07
2018-02-03T19:50:05.842Z,15.47
2018-02-03T19:52:34.833Z,10.57
2018-02-03T19:55:03.576Z,15.57
2018-02-03T19:57:32.633Z,17.17
2018-02-03T20:00:00.906Z,18.30
2018-02-03T20:02:29.335Z,18.30
2018-02-03T20:05:00.901Z,22.00
2018-02-03T20:07:30.253Z,20.87
2018-02-03T20:10:00.069Z,19.10
2018-02-03T20:12:29.110Z,18.87
2018-02-03T20:14:57.944Z,20.27
2018-02-03T20:17:26.989Z,15.80
2018-02-03T20:19:56.013Z,21.43
2018-02-03T20:22:24.517Z,36.63
2018-02-03T20:24:52.790Z,101.03
2018-02-03T20:27:21.058Z,33.53
2018-02-03T20:29:49.847Z,32.60
2018-02-03T20:32:18.135Z,17.47
2018-02-03T20:34:46.391Z,19.10
2018-02-03T20:37:14.770Z,18.30
2018-02-03T20:39:43.037Z,21.90
2018-02-03T20:42:11.317Z,21.03
2018-02-03T20:44:39.928Z,21.90
2018-02-03T20:47:09.932Z,16.17
2018-02-03T20:49:38.188Z,19.63
2018-02-03T20:52:06.710Z,23.27
2018-02-03T20:54:37.712Z,20.57
2018-02-03T20:57:05.992Z,18.03
2018-02-03T20:59:35.358Z,18.30
2018-02-03T21:02:04.384Z,20.17
2018-02-03T21:04:32.650Z,20.10
2018-02-03T21:07:02.043Z,22.27
2018-02-03T21:09:32.917Z,21.40
2018-02-03T21:12:01.904Z,17.10
2018-02-03T21:14:30.204Z,22.10
2018-02-03T21:16:58.460Z,23.57
2018-02-03T21:19:27.169Z,17.80
2018-02-03T21:21:55.853Z,23.90
2018-02-03T21:24:27.110Z,20.47
2018-02-03T21:26:55.372Z,20.70
2018-02-03T21:29:23.790Z,25.90
2018-02-03T21:31:52.893Z,12.23
2018-02-03T21:34:21.157Z,19.33
2018-02-03T21:36:50.417Z,27.83
2018-02-03T21:39:18.685Z,18.50
2018-02-03T21:41:46.949Z,13.87
2018-02-03T21:44:18.217Z,21.07
2018-02-03T21:46:46.513Z,23.60
2018-02-03T21:49:14.857Z,25.77
2018-02-03T21:51:43.164Z,23.27
2018-02-03T21:54:11.440Z,21.87
2018-02-03T21:56:39.697Z,20.93
2018-02-03T21:59:08.038Z,18.93
2018-02-03T22:01:37.077Z,16.57
2018-02-03T22:04:05.364Z,22.80
2018-02-03T22:06:34.053Z,8.30
2018-02-03T22:09:04.611Z,18.53
2018-02-03T22:11:34.059Z,16.47
2018-02-03T22:14:03.939Z,21.47
2018-02-03T22:16:32.195Z,12.77
2018-02-03T22:19:01.242Z,28.60
2018-02-03T22:21:29.948Z,26.47
2018-02-03T22:23:58.209Z,20.90
2018-02-03T22:26:30.817Z,14.40
2018-02-03T22:28:59.057Z,25.83
2018-02-03T22:31:27.433Z,13.40
2018-02-03T22:33:58.613Z,9.20
2018-02-03T22:36:26.859Z,21.60
2018-02-03T22:38:55.901Z,12.57
2018-02-03T22:41:25.462Z,22.10
2018-02-03T22:43:53.738Z,21.07
2018-02-03T22:46:23.606Z,11.40
2018-02-03T22:48:51.886Z,15.73
2018-02-03T22:51:20.877Z,6.30
2018-02-03T22:53:49.881Z,15.13
2018-02-03T22:56:18.409Z,11.30
2018-02-03T22:58:46.725Z,21.30
2018-02-03T23:01:17.601Z,25.73
2018-02-03T23:03:46.638Z,10.87
2018-02-03T23:06:15.688Z,18.63
2018-02-03T23:08:43.955Z,19.87
2018-02-03T23:11:12.276Z,18.93
2018-02-03T23:13:40.598Z,19.93
2018-02-03T23:16:09.582Z,12.37
2018-02-03T23:18:38.097Z,15.53
2018-02-03T23:21:06.419Z,23.53
2018-02-03T23:23:36.454Z,23.50
2018-02-03T23:26:04.910Z,23.27
2018-02-03T23:28:33.929Z,23.03
2018-02-03T23:31:02.194Z,9.20
2018-02-03T23:33:31.574Z,19.77
2018-02-03T23:35:59.836Z,20.57
2018-02-03T23:38:28.102Z,20.73
2018-02-03T23:40:56.492Z,10.87
2018-02-03T23:43:24.762Z,18.53
2018-02-03T23:45:53.014Z,22.47
2018-02-03T23:48:21.592Z,12.43
2018-02-03T23:50:49.864Z,13.67
2018-02-03T23:53:18.885Z,17.90
2018-02-03T23:55:47.960Z,23.97
2018-02-03T23:58:16.220Z,19.00
